Time,TemperatureF,DewpointF,PressureIn,WindDirection,WindDirectionDegrees,WindSpeedMPH,WindSpeedGustMPH,Humidity,HourlyPrecipIn,Conditions,Clouds,dailyrainin,SolarRadiationWatts/m^2,SoftwareType,DateUTC
2013-01-14 00:03:00,8.0,1.0,-100.00,WNW,300,9.0,15.0,74,0.00,,,0.00,0.000000,,2013-01-14 06:03:00,
2013-01-14 00:11:00,8.0,2.0,-100.00,NW,307,7.0,15.0,76,0.00,,,0.00,0.000000,,2013-01-14 06:11:00,
2013-01-14 00:33:00,8.0,2.0,-100.00,NW,307,7.0,15.0,76,0.00,,,0.00,0.000000,,2013-01-14 06:33:00,
2013-01-14 00:43:00,8.0,2.0,-100.00,NW,307,7.0,15.0,76,0.00,,,0.00,0.000000,,2013-01-14 06:43:00,
2013-01-14 00:53:00,8.0,2.0,-100.00,NW,307,7.0,15.0,76,0.00,,,0.00,0.000000,,2013-01-14 06:53:00,
2013-01-14 01:02:00,8.0,2.0,-100.00,NW,307,7.0,15.0,76,0.00,,,0.00,0.000000,,2013-01-14 07:02:00,
2013-01-14 01:11:00,7.0,1.0,-100.00,WNW,300,6.0,12.0,77,0.00,,,0.00,0.000000,,2013-01-14 07:11:00,
2013-01-14 01:33:00,7.0,1.0,-100.00,WNW,300,6.0,12.0,77,0.00,,,0.00,0.000000,,2013-01-14 07:33:00,
2013-01-14 01:43:00,7.0,1.0,-100.00,WNW,300,6.0,12.0,77,0.00,,,0.00,0.000000,,2013-01-14 07:43:00,
2013-01-14 01:53:00,7.0,1.0,-100.00,WNW,300,6.0,12.0,77,0.00,,,0.00,0.000000,,2013-01-14 07:53:00,
2013-01-14 02:02:00,7.0,1.0,-100.00,WNW,300,6.0,12.0,77,0.00,,,0.00,0.000000,,2013-01-14 08:02:00,
2013-01-14 02:11:00,6.0,1.0,-100.00,WNW,301,5.0,10.0,79,0.00,,,0.00,0.000000,,2013-01-14 08:11:00,
2013-01-14 02:33:00,6.0,1.0,-100.00,WNW,301,5.0,10.0,79,0.00,,,0.00,0.000000,,2013-01-14 08:33:00,
2013-01-14 02:43:00,6.0,1.0,-100.00,WNW,301,5.0,10.0,79,0.00,,,0.00,0.000000,,2013-01-14 08:43:00,
2013-01-14 02:53:00,6.0,1.0,-100.00,WNW,301,5.0,10.0,79,0.00,,,0.00,0.000000,,2013-01-14 08:53:00,
2013-01-14 03:02:00,6.0,1.0,-100.00,WNW,301,5.0,10.0,79,0.00,,,0.00,0.000000,,2013-01-14 09:02:00,
2013-01-14 03:11:00,5.0,1.0,-100.00,WNW,300,5.0,8.0,82,0.00,,,0.00,0.000000,,2013-01-14 09:11:00,
2013-01-14 03:34:00,5.0,1.0,-100.00,WNW,300,5.0,8.0,82,0.00,,,0.00,0.000000,,2013-01-14 09:34:00,
2013-01-14 03:43:00,5.0,1.0,-100.00,WNW,300,5.0,8.0,82,0.00,,,0.00,0.000000,,2013-01-14 09:43:00,
2013-01-14 03:53:00,5.0,1.0,-100.00,WNW,300,5.0,8.0,82,0.00,,,0.00,0.000000,,2013-01-14 09:53:00,
2013-01-14 04:02:00,5.0,1.0,-100.00,WNW,300,5.0,8.0,82,0.00,,,0.00,0.000000,,2013-01-14 10:02:00,
2013-01-14 04:11:00,5.0,1.0,-100.00,WNW,287,4.0,7.0,83,0.00,,,0.00,0.000000,,2013-01-14 10:11:00,
2013-01-14 04:33:00,5.0,1.0,-100.00,WNW,287,4.0,7.0,83,0.00,,,0.00,0.000000,,2013-01-14 10:33:00,
2013-01-14 04:43:00,5.0,1.0,-100.00,WNW,287,4.0,7.0,83,0.00,,,0.00,0.000000,,2013-01-14 10:43:00,
2013-01-14 04:53:00,5.0,1.0,-100.00,WNW,287,4.0,7.0,83,0.00,,,0.00,0.000000,,2013-01-14 10:53:00,
2013-01-14 05:02:00,5.0,1.0,-100.00,WNW,287,4.0,7.0,83,0.00,,,0.00,0.000000,,2013-01-14 11:02:00,
2013-01-14 05:11:00,4.0,1.0,-100.00,WSW,239,4.0,7.0,85,0.00,,,0.00,0.000000,,2013-01-14 11:11:00,
2013-01-14 05:43:00,4.0,1.0,-100.00,WSW,239,4.0,7.0,85,0.00,,,0.00,0.000000,,2013-01-14 11:43:00,
2013-01-14 05:53:00,4.0,1.0,-100.00,WSW,239,4.0,7.0,85,0.00,,,0.00,0.000000,,2013-01-14 11:53:00,
2013-01-14 06:03:00,4.0,1.0,-100.00,WSW,239,4.0,7.0,85,0.00,,,0.00,0.000000,,2013-01-14 12:03:00,
2013-01-14 06:11:00,4.0,0.0,-100.00,SW,236,4.0,7.0,84,0.00,,,0.00,0.000000,,2013-01-14 12:11:00,
2013-01-14 06:33:00,4.0,0.0,-100.00,SW,236,4.0,7.0,84,0.00,,,0.00,0.000000,,2013-01-14 12:33:00,
2013-01-14 06:43:00,4.0,0.0,-100.00,SW,236,4.0,7.0,84,0.00,,,0.00,0.000000,,2013-01-14 12:43:00,
2013-01-14 06:53:00,4.0,0.0,-100.00,SW,236,4.0,7.0,84,0.00,,,0.00,0.000000,,2013-01-14 12:53:00,
2013-01-14 07:03:00,4.0,0.0,-100.00,SW,236,4.0,7.0,84,0.00,,,0.00,0.000000,,2013-01-14 13:03:00,
2013-01-14 07:11:00,4.0,0.0,-100.00,SW,227,4.0,6.0,83,0.00,,,0.00,0.000000,,2013-01-14 13:11:00,
2013-01-14 07:33:00,4.0,0.0,-100.00,SW,227,4.0,6.0,83,0.00,,,0.00,0.000000,,2013-01-14 13:33:00,
2013-01-14 07:43:00,4.0,0.0,-100.00,SW,227,4.0,6.0,83,0.00,,,0.00,0.000000,,2013-01-14 13:43:00,
2013-01-14 07:53:00,4.0,0.0,-100.00,SW,227,4.0,6.0,83,0.00,,,0.00,0.000000,,2013-01-14 13:53:00,
2013-01-14 08:03:00,4.0,0.0,-100.00,SW,227,4.0,6.0,83,0.00,,,0.00,0.000000,,2013-01-14 14:03:00,
2013-01-14 08:11:00,5.0,1.0,-100.00,WSW,253,5.0,6.0,83,0.00,,,0.00,9.000000,,2013-01-14 14:11:00,
2013-01-14 08:33:00,5.0,1.0,-100.00,WSW,253,5.0,6.0,83,0.00,,,0.00,9.000000,,2013-01-14 14:33:00,
2013-01-14 08:43:00,5.0,1.0,-100.00,WSW,253,5.0,6.0,83,0.00,,,0.00,9.000000,,2013-01-14 14:43:00,
2013-01-14 08:53:00,5.0,1.0,-100.00,WSW,253,5.0,6.0,83,0.00,,,0.00,9.000000,,2013-01-14 14:53:00,
2013-01-14 09:03:00,5.0,1.0,-100.00,WSW,253,5.0,6.0,83,0.00,,,0.00,9.000000,,2013-01-14 15:03:00,
2013-01-14 09:11:00,10.0,5.0,-100.00,West,266,5.0,9.0,78,0.00,,,0.00,102.000000,,2013-01-14 15:11:00,
2013-01-14 09:34:00,10.0,5.0,-100.00,West,266,5.0,9.0,78,0.00,,,0.00,102.000000,,2013-01-14 15:34:00,
2013-01-14 09:43:00,10.0,5.0,-100.00,West,266,5.0,9.0,78,0.00,,,0.00,102.000000,,2013-01-14 15:43:00,
2013-01-14 09:53:00,10.0,5.0,-100.00,West,266,5.0,9.0,78,0.00,,,0.00,102.000000,,2013-01-14 15:53:00,
2013-01-14 10:03:00,10.0,5.0,-100.00,West,266,5.0,9.0,78,0.00,,,0.00,102.000000,,2013-01-14 16:03:00,
2013-01-14 10:11:00,16.0,6.0,-100.00,SSW,213,4.0,9.0,65,0.00,,,0.00,279.000000,,2013-01-14 16:11:00,
2013-01-14 10:33:00,16.0,6.0,-100.00,SSW,213,4.0,9.0,65,0.00,,,0.00,279.000000,,2013-01-14 16:33:00,
2013-01-14 10:43:00,16.0,6.0,-100.00,SSW,213,4.0,9.0,65,0.00,,,0.00,279.000000,,2013-01-14 16:43:00,
2013-01-14 10:53:00,16.0,6.0,-100.00,SSW,213,4.0,9.0,65,0.00,,,0.00,279.000000,,2013-01-14 16:53:00,
2013-01-14 11:03:00,16.0,6.0,-100.00,SSW,213,4.0,9.0,65,0.00,,,0.00,279.000000,,2013-01-14 17:03:00,
2013-01-14 11:11:00,18.0,5.0,-100.00,West,260,6.0,9.0,57,0.00,,,0.00,383.000000,,2013-01-14 17:11:00,
2013-01-14 11:33:00,18.0,5.0,-100.00,West,260,6.0,9.0,57,0.00,,,0.00,383.000000,,2013-01-14 17:33:00,
2013-01-14 11:43:00,18.0,5.0,-100.00,West,260,6.0,9.0,57,0.00,,,0.00,383.000000,,2013-01-14 17:43:00,
2013-01-14 11:54:00,18.0,5.0,-100.00,West,260,6.0,9.0,57,0.00,,,0.00,383.000000,,2013-01-14 17:54:00,
2013-01-14 12:03:00,18.0,5.0,-100.00,West,260,6.0,9.0,57,0.00,,,0.00,383.000000,,2013-01-14 18:03:00,
2013-01-14 12:11:00,21.0,7.0,-100.00,West,275,7.0,11.0,54,0.00,,,0.00,447.000000,,2013-01-14 18:11:00,
2013-01-14 12:33:00,21.0,7.0,-100.00,West,275,7.0,11.0,54,0.00,,,0.00,447.000000,,2013-01-14 18:33:00,
2013-01-14 12:43:00,21.0,7.0,-100.00,West,275,7.0,11.0,54,0.00,,,0.00,447.000000,,2013-01-14 18:43:00,
2013-01-14 12:53:00,21.0,7.0,-100.00,West,275,7.0,11.0,54,0.00,,,0.00,447.000000,,2013-01-14 18:53:00,
2013-01-14 13:03:00,21.0,7.0,-100.00,West,275,7.0,11.0,54,0.00,,,0.00,447.000000,,2013-01-14 19:03:00,
2013-01-14 13:11:00,24.0,8.0,-100.00,West,274,6.0,13.0,49,0.00,,,0.00,459.000000,,2013-01-14 19:11:00,
2013-01-14 13:43:00,24.0,8.0,-100.00,West,274,6.0,13.0,49,0.00,,,0.00,459.000000,,2013-01-14 19:43:00,
2013-01-14 13:53:00,24.0,8.0,-100.00,West,274,6.0,13.0,49,0.00,,,0.00,459.000000,,2013-01-14 19:53:00,
2013-01-14 14:03:00,24.0,8.0,-100.00,West,274,6.0,13.0,49,0.00,,,0.00,459.000000,,2013-01-14 20:03:00,
2013-01-14 14:11:00,24.0,8.0,-100.00,West,267,8.0,15.0,50,0.00,,,0.00,349.000000,,2013-01-14 20:11:00,
2013-01-14 14:33:00,24.0,8.0,-100.00,West,267,8.0,15.0,50,0.00,,,0.00,349.000000,,2013-01-14 20:33:00,
2013-01-14 14:43:00,24.0,8.0,-100.00,West,267,8.0,15.0,50,0.00,,,0.00,349.000000,,2013-01-14 20:43:00,
2013-01-14 14:53:00,24.0,8.0,-100.00,West,267,8.0,15.0,50,0.00,,,0.00,349.000000,,2013-01-14 20:53:00,
2013-01-14 15:03:00,24.0,8.0,-100.00,West,267,8.0,15.0,50,0.00,,,0.00,349.000000,,2013-01-14 21:03:00,
2013-01-14 15:11:00,24.0,9.0,-100.00,West,273,7.0,14.0,51,0.00,,,0.00,230.000000,,2013-01-14 21:11:00,
2013-01-14 15:33:00,24.0,9.0,-100.00,West,273,7.0,14.0,51,0.00,,,0.00,230.000000,,2013-01-14 21:33:00,
2013-01-14 15:43:00,24.0,9.0,-100.00,West,273,7.0,14.0,51,0.00,,,0.00,230.000000,,2013-01-14 21:43:00,
2013-01-14 15:53:00,24.0,9.0,-100.00,West,273,7.0,14.0,51,0.00,,,0.00,230.000000,,2013-01-14 21:53:00,
2013-01-14 16:03:00,24.0,9.0,-100.00,West,273,7.0,14.0,51,0.00,,,0.00,230.000000,,2013-01-14 22:03:00,
2013-01-14 16:11:00,22.0,8.0,-100.00,West,259,6.0,12.0,53,0.00,,,-99.99,166.000000,,2013-01-14 22:11:00,
2013-01-14 16:33:00,22.0,8.0,-100.00,West,259,6.0,12.0,53,0.00,,,-99.99,166.000000,,2013-01-14 22:33:00,
2013-01-14 16:43:00,22.0,8.0,-100.00,West,259,6.0,12.0,53,0.00,,,-99.99,166.000000,,2013-01-14 22:43:00,
2013-01-14 16:53:00,22.0,8.0,-100.00,West,259,6.0,12.0,53,0.00,,,-99.99,166.000000,,2013-01-14 22:53:00,
2013-01-14 17:03:00,22.0,8.0,-100.00,West,259,6.0,12.0,53,0.00,,,-99.99,166.000000,,2013-01-14 23:03:00,
2013-01-14 17:11:00,19.0,8.0,-100.00,SW,222,3.0,9.0,61,0.00,,,0.00,16.000000,,2013-01-14 23:11:00,
2013-01-14 17:33:00,19.0,8.0,-100.00,SW,222,3.0,9.0,61,0.00,,,0.00,16.000000,,2013-01-14 23:33:00,
2013-01-14 17:43:00,19.0,8.0,-100.00,SW,222,3.0,9.0,61,0.00,,,0.00,16.000000,,2013-01-14 23:43:00,
2013-01-14 17:53:00,19.0,8.0,-100.00,SW,222,3.0,9.0,61,0.00,,,0.00,16.000000,,2013-01-14 23:53:00,
2013-01-14 18:03:00,19.0,8.0,-100.00,SW,222,3.0,9.0,61,0.00,,,0.00,16.000000,,2013-01-15 00:03:00,
2013-01-14 18:11:00,17.0,8.0,-100.00,SW,214,3.0,5.0,67,0.00,,,0.00,0.000000,,2013-01-15 00:11:00,
2013-01-14 18:33:00,17.0,8.0,-100.00,SW,214,3.0,5.0,67,0.00,,,0.00,0.000000,,2013-01-15 00:33:00,
2013-01-14 18:43:00,17.0,8.0,-100.00,SW,214,3.0,5.0,67,0.00,,,0.00,0.000000,,2013-01-15 00:43:00,
2013-01-14 18:53:00,17.0,8.0,-100.00,SW,214,3.0,5.0,67,0.00,,,0.00,0.000000,,2013-01-15 00:53:00,
2013-01-14 19:02:00,17.0,8.0,-100.00,SW,214,3.0,5.0,67,0.00,,,0.00,0.000000,,2013-01-15 01:02:00,
2013-01-14 20:11:00,17.0,9.0,-100.00,SW,217,3.0,4.0,71,-99.99,,,0.00,0.000000,,2013-01-15 02:11:00,
2013-01-14 20:33:00,17.0,9.0,-100.00,SW,217,3.0,4.0,71,-99.99,,,0.00,0.000000,,2013-01-15 02:33:00,
2013-01-14 20:43:00,17.0,9.0,-100.00,SW,217,3.0,4.0,71,-99.99,,,0.00,0.000000,,2013-01-15 02:43:00,
2013-01-14 20:53:00,17.0,9.0,-100.00,SW,217,3.0,4.0,71,-99.99,,,0.00,0.000000,,2013-01-15 02:53:00,
2013-01-14 21:02:00,17.0,9.0,-100.00,SW,217,3.0,4.0,71,-99.99,,,0.00,0.000000,,2013-01-15 03:02:00,
2013-01-14 21:11:00,16.0,9.0,-100.00,SSW,203,4.0,5.0,73,0.00,,,0.00,0.000000,,2013-01-15 03:11:00,
2013-01-14 21:33:00,16.0,9.0,-100.00,SSW,203,4.0,5.0,73,0.00,,,0.00,0.000000,,2013-01-15 03:33:00,
2013-01-14 21:43:00,16.0,9.0,-100.00,SSW,203,4.0,5.0,73,0.00,,,0.00,0.000000,,2013-01-15 03:43:00,
2013-01-14 21:53:00,16.0,9.0,-100.00,SSW,203,4.0,5.0,73,0.00,,,0.00,0.000000,,2013-01-15 03:53:00,
2013-01-14 22:02:00,16.0,9.0,-100.00,SSW,203,4.0,5.0,73,0.00,,,0.00,0.000000,,2013-01-15 04:02:00,
2013-01-14 22:11:00,16.0,9.0,-100.00,SW,226,3.0,5.0,73,0.00,,,0.00,0.000000,,2013-01-15 04:11:00,
2013-01-14 22:33:00,16.0,9.0,-100.00,SW,226,3.0,5.0,73,0.00,,,0.00,0.000000,,2013-01-15 04:33:00,
2013-01-14 22:42:00,16.0,9.0,-100.00,SW,226,3.0,5.0,73,0.00,,,0.00,0.000000,,2013-01-15 04:42:00,
2013-01-14 22:52:00,16.0,9.0,-100.00,SW,226,3.0,5.0,73,0.00,,,0.00,0.000000,,2013-01-15 04:52:00,
2013-01-14 23:03:00,16.0,9.0,-100.00,SW,226,3.0,5.0,73,0.00,,,0.00,0.000000,,2013-01-15 05:03:00,
2013-01-14 23:11:00,16.0,9.0,-100.00,SW,235,4.0,7.0,73,0.00,,,0.00,0.000000,,2013-01-15 05:11:00,
2013-01-14 23:33:00,16.0,9.0,-100.00,SW,235,4.0,7.0,73,0.00,,,0.00,0.000000,,2013-01-15 05:33:00,
2013-01-14 23:42:00,16.0,9.0,-100.00,SW,235,4.0,7.0,73,0.00,,,0.00,0.000000,,2013-01-15 05:42:00,
2013-01-14 23:53:00,16.0,9.0,-100.00,SW,235,4.0,7.0,73,0.00,,,0.00,0.000000,,2013-01-15 05:53:00,